Greater Peoria Regional Airport
KPIA : rendu visible

Aérodrome :











RETROUVEZ-NOUS SUR...

 
LOGIN :

S'inscrire | Disclaimer

   EN    FR    IT 

 









Légende :    VFR   VFR Marginal   IFR   IFR Intensif   IFR Très Intensif
Visi : 
Plafond : 
>= 8 km
>= 3000ft
5 à 8 km
1000 à 3000 ft
1500m à 5 km
500 à 1000 ft
800 à 1500m
200 à 500 ft
< 800m
< 200 ft
Symboles :   Orages  Brouillard  Fortes neiges  Fortes précipitations  Vent > 20 kt






- Altitude de l'aérodrome : 660 ft
- Code IATA : PIA


KPIA - Greater Peoria Regional

DERNIER METAR :
  • 272130Z 32006KT 10SM OVC009 M01/M02 A3004 RMK AO2 T10061022

METARs EXPIRÉS :
  • 272054Z 36004KT 10SM OVC010 00/M02 A3003 RMK AO2 SLP176 I3000 T00001022 53000
  • 271954Z 32007KT 10SM OVC009 M01/M02 A3002 RMK AO2 SLP172 T10061017
  • 271913Z 31005KT 10SM OVC010 M01/M02 A3002 RMK AO2 T10061022
  • 271854Z 32005KT 10SM OVC008 M01/M02 A3002 RMK AO2 SLP174 I1000 T10061022

TAF KPIA
Valide du 27 à 18h jusqu'au 28 à 18h UTC


271738Z 2718/2818 32005KT P6SM OVC009
FM280300 31003KT 5SM BR OVC005
FM280700 31003KT 2SM BR OVC003
FM281500 32005KT 6SM BR OVC007



MET'MAP, la Météo Aéronautique d'un coup d'oeil ! - Copyright ORBIFLY Décembre 2007 - Disclaimer

ORBIFLY MET'MAP TEAM :

Programmation & Développement : Alexandra Zaïnal
Sur une idée originale de : Baudouin d'Aumeries
Assistance à la programmation : Marc-Olivier Méhu
Soutien technique & logistique : Manuel Goepfert

Contact : metmap@orbifly.com




SOURCES & CREDITS :

   NOAA       Earth
Advisory